createdAt,value
2018-03-23T00:00:35.389Z,0.00
2018-03-23T00:01:35.398Z,0.00
2018-03-23T00:02:35.404Z,0.00
2018-03-23T00:03:35.406Z,0.00
2018-03-23T00:04:35.407Z,0.00
2018-03-23T00:05:35.405Z,0.00
2018-03-23T00:06:35.413Z,0.00
2018-03-23T00:07:35.410Z,0.00
2018-03-23T00:08:35.419Z,0.00
2018-03-23T00:09:35.417Z,0.00
2018-03-23T00:10:35.418Z,0.00
2018-03-23T00:11:35.422Z,0.00
2018-03-23T00:12:35.426Z,0.00
2018-03-23T00:13:35.433Z,0.00
2018-03-23T00:14:35.438Z,0.00
2018-03-23T00:15:35.440Z,0.00
2018-03-23T00:16:35.437Z,0.00
2018-03-23T00:17:35.445Z,0.00
2018-03-23T00:18:35.442Z,0.00
2018-03-23T00:19:35.449Z,0.00
2018-03-23T00:20:35.451Z,0.00
2018-03-23T00:21:35.457Z,0.00
2018-03-23T00:22:35.459Z,0.00
2018-03-23T00:23:35.456Z,0.00
2018-03-23T00:24:35.459Z,0.00
2018-03-23T00:25:35.468Z,0.00
2018-03-23T00:26:35.471Z,0.00
2018-03-23T00:27:35.472Z,0.00
2018-03-23T00:28:35.476Z,0.00
2018-03-23T00:29:35.472Z,0.00
2018-03-23T00:30:35.476Z,0.00
2018-03-23T00:31:35.477Z,0.00
2018-03-23T00:32:35.479Z,0.00
2018-03-23T00:33:35.484Z,0.00
2018-03-23T00:34:35.486Z,0.00
2018-03-23T00:35:35.494Z,0.00
2018-03-23T00:36:35.496Z,0.00
2018-03-23T00:37:35.493Z,0.00
2018-03-23T00:38:35.496Z,0.00
2018-03-23T00:39:35.518Z,0.00
2018-03-23T00:40:35.502Z,0.00
2018-03-23T00:41:35.504Z,0.00
2018-03-23T00:42:35.513Z,0.00
2018-03-23T00:43:35.509Z,0.00
2018-03-23T00:44:35.517Z,0.00
2018-03-23T00:45:35.517Z,0.00
2018-03-23T00:46:35.527Z,0.00
2018-03-23T00:47:35.526Z,0.00
2018-03-23T00:48:35.523Z,0.00
2018-03-23T00:49:35.525Z,0.00
2018-03-23T00:50:35.535Z,0.00
2018-03-23T00:51:35.532Z,0.00
2018-03-23T00:52:35.539Z,0.00
2018-03-23T00:53:35.544Z,0.00
2018-03-23T00:54:35.542Z,0.00
2018-03-23T00:55:35.548Z,0.00
2018-03-23T00:56:35.547Z,0.00
2018-03-23T00:57:35.551Z,0.00
2018-03-23T00:58:35.551Z,0.00
2018-03-23T00:59:35.554Z,0.00
2018-03-23T01:00:35.560Z,0.00
2018-03-23T01:01:35.567Z,0.00
2018-03-23T01:02:35.575Z,0.00
2018-03-23T01:03:35.565Z,0.00
2018-03-23T01:04:35.570Z,0.00
2018-03-23T01:05:35.572Z,0.00
2018-03-23T01:06:35.580Z,0.00
2018-03-23T01:07:35.585Z,0.00
2018-03-23T01:08:35.585Z,0.00
2018-03-23T01:09:35.584Z,0.00
2018-03-23T01:10:35.587Z,0.00
2018-03-23T01:11:35.596Z,0.00
2018-03-23T01:12:35.592Z,0.00
2018-03-23T01:13:35.602Z,0.00
2018-03-23T01:14:35.665Z,0.00
2018-03-23T01:15:35.601Z,0.00
2018-03-23T01:16:35.604Z,0.00
2018-03-23T01:17:35.612Z,0.00
2018-03-23T01:18:35.611Z,0.00
2018-03-23T01:19:35.614Z,0.00
2018-03-23T01:20:35.620Z,0.00
2018-03-23T01:21:35.623Z,0.00
2018-03-23T01:22:35.627Z,0.00
2018-03-23T01:23:35.628Z,0.00
2018-03-23T01:24:35.627Z,0.00
2018-03-23T01:25:35.630Z,0.00
2018-03-23T01:26:35.633Z,0.00
2018-03-23T01:27:35.646Z,0.00
2018-03-23T01:28:35.648Z,0.00
2018-03-23T01:29:35.648Z,0.00
2018-03-23T01:30:35.651Z,0.00
2018-03-23T01:31:35.645Z,0.00
2018-03-23T01:32:35.661Z,0.00
2018-03-23T01:33:35.652Z,0.00
2018-03-23T01:34:35.659Z,0.00
2018-03-23T01:35:35.662Z,0.00
2018-03-23T01:36:35.709Z,0.00
2018-03-23T01:37:35.667Z,0.00
2018-03-23T01:38:35.679Z,0.00
2018-03-23T01:39:35.668Z,0.00
2018-03-23T01:40:35.677Z,0.00
2018-03-23T01:41:35.674Z,0.00
2018-03-23T01:42:35.676Z,0.00
2018-03-23T01:43:35.679Z,0.00
2018-03-23T01:44:35.682Z,0.00
2018-03-23T01:45:35.686Z,0.00
2018-03-23T01:46:35.691Z,0.00
2018-03-23T01:47:35.699Z,0.00
2018-03-23T01:48:35.698Z,0.00
2018-03-23T01:49:35.696Z,0.00
2018-03-23T01:50:35.699Z,0.00
2018-03-23T01:51:35.709Z,0.00
2018-03-23T01:52:35.709Z,0.00
2018-03-23T01:53:35.708Z,0.00
2018-03-23T01:54:35.709Z,0.00
2018-03-23T01:55:35.711Z,0.00
2018-03-23T01:56:35.720Z,0.00
2018-03-23T01:57:35.729Z,0.00
2018-03-23T01:58:35.719Z,0.00
2018-03-23T01:59:35.729Z,0.00
2018-03-23T02:00:35.725Z,0.00
2018-03-23T02:01:35.734Z,0.00
2018-03-23T02:02:35.738Z,0.00
2018-03-23T02:03:35.740Z,0.00
2018-03-23T02:04:35.736Z,0.00
2018-03-23T02:05:35.743Z,0.00
2018-03-23T02:06:35.760Z,0.00
2018-03-23T02:07:35.749Z,0.00
2018-03-23T02:08:35.747Z,0.00
2018-03-23T02:09:35.749Z,0.00
2018-03-23T02:10:35.758Z,0.00
2018-03-23T02:11:35.762Z,0.00
2018-03-23T02:12:35.765Z,0.00
2018-03-23T02:13:35.760Z,0.00
2018-03-23T02:14:35.764Z,0.00
2018-03-23T02:15:35.766Z,0.00
2018-03-23T02:16:35.774Z,0.00
2018-03-23T02:17:35.778Z,0.00
2018-03-23T02:18:35.774Z,0.00
2018-03-23T02:19:35.777Z,0.00
2018-03-23T02:20:35.780Z,0.00
2018-03-23T02:21:35.786Z,0.00
2018-03-23T02:22:35.785Z,0.00
2018-03-23T02:23:35.786Z,0.00
2018-03-23T02:24:35.795Z,0.00
2018-03-23T02:25:35.799Z,0.00
2018-03-23T02:26:35.797Z,0.00
2018-03-23T02:27:35.798Z,0.00
2018-03-23T02:28:35.806Z,0.00
2018-03-23T02:29:35.804Z,0.00
2018-03-23T02:30:35.807Z,0.00
2018-03-23T02:31:35.817Z,0.00
2018-03-23T02:32:35.812Z,0.00
2018-03-23T02:33:35.833Z,0.00
2018-03-23T02:34:35.825Z,0.00
2018-03-23T02:35:35.824Z,0.00
2018-03-23T02:36:35.828Z,0.00
2018-03-23T02:37:35.826Z,0.00
2018-03-23T02:38:35.829Z,0.00
2018-03-23T02:39:35.832Z,0.00
2018-03-23T02:40:35.838Z,0.00
2018-03-23T02:41:35.840Z,0.00
2018-03-23T02:42:35.847Z,0.00
2018-03-23T02:43:35.845Z,0.00
2018-03-23T02:44:35.843Z,0.00
2018-03-23T02:45:35.858Z,0.00
2018-03-23T02:46:35.848Z,0.00
2018-03-23T02:47:35.856Z,0.00
2018-03-23T02:48:35.854Z,0.00
2018-03-23T02:49:35.863Z,0.00
2018-03-23T02:50:35.861Z,0.00
2018-03-23T02:51:35.869Z,0.00
2018-03-23T02:52:35.864Z,0.00
2018-03-23T02:53:35.868Z,0.00
2018-03-23T02:54:35.878Z,0.00
2018-03-23T02:55:35.885Z,0.00
2018-03-23T02:56:35.881Z,0.00
2018-03-23T02:57:35.880Z,0.00
2018-03-23T02:58:35.883Z,0.00
2018-03-23T02:59:35.889Z,0.00
2018-03-23T03:00:35.894Z,0.00
2018-03-23T03:01:35.906Z,0.00
2018-03-23T03:02:35.898Z,0.00
2018-03-23T03:03:35.902Z,0.00
2018-03-23T03:04:35.903Z,0.00
2018-03-23T03:05:35.902Z,0.00
2018-03-23T03:06:35.911Z,0.00
2018-03-23T03:07:35.908Z,0.00
2018-03-23T03:08:35.910Z,0.00
2018-03-23T03:09:35.916Z,0.00
2018-03-23T03:10:35.921Z,0.00
2018-03-23T03:11:35.923Z,0.00
2018-03-23T03:12:35.921Z,0.00
2018-03-23T03:13:35.925Z,0.00
2018-03-23T03:14:35.926Z,0.00
2018-03-23T03:15:35.928Z,0.00
2018-03-23T03:16:35.936Z,0.00
2018-03-23T03:17:35.933Z,0.00
2018-03-23T03:18:35.937Z,0.00
2018-03-23T03:19:35.939Z,0.00
2018-03-23T03:20:35.941Z,0.00
2018-03-23T03:21:35.946Z,0.00
2018-03-23T03:22:35.953Z,0.00
2018-03-23T03:23:35.950Z,0.00
2018-03-23T03:24:35.958Z,0.00
2018-03-23T03:25:35.956Z,0.00
2018-03-23T03:26:35.959Z,0.00
2018-03-23T03:27:35.965Z,0.00
2018-03-23T03:28:35.973Z,0.00
2018-03-23T03:29:35.972Z,0.00
2018-03-23T03:30:35.976Z,0.00
2018-03-23T03:31:35.977Z,0.00
2018-03-23T03:32:35.981Z,0.00
2018-03-23T03:33:35.981Z,0.00
2018-03-23T03:34:35.984Z,0.00
2018-03-23T03:35:35.988Z,0.00
2018-03-23T03:36:35.984Z,0.00
2018-03-23T03:37:35.986Z,0.00
2018-03-23T03:38:35.988Z,0.00
2018-03-23T03:39:36.044Z,0.00
2018-03-23T03:40:35.999Z,0.00
2018-03-23T03:41:36.001Z,0.00
2018-03-23T03:42:35.999Z,0.00
2018-03-23T03:43:36.005Z,0.00
2018-03-23T03:44:36.012Z,0.00
2018-03-23T03:45:36.007Z,0.00
2018-03-23T03:46:36.010Z,0.00
2018-03-23T03:47:36.016Z,0.00
2018-03-23T03:48:36.015Z,0.00
2018-03-23T03:49:36.016Z,0.00
2018-03-23T03:50:36.020Z,0.00
2018-03-23T03:51:36.021Z,0.00
2018-03-23T03:52:36.029Z,0.00
2018-03-23T03:53:36.027Z,0.00
2018-03-23T03:54:36.037Z,0.00
2018-03-23T03:55:36.033Z,0.00
2018-03-23T03:56:36.042Z,0.00
2018-03-23T03:57:36.037Z,0.00
2018-03-23T03:58:36.040Z,0.00
2018-03-23T03:59:36.044Z,0.00
2018-03-23T04:00:36.044Z,0.00
2018-03-23T04:01:36.052Z,0.00
2018-03-23T04:02:36.057Z,0.00
2018-03-23T04:03:36.055Z,0.00
2018-03-23T04:04:36.053Z,0.00
2018-03-23T04:05:36.072Z,0.00
2018-03-23T04:06:36.059Z,0.00
2018-03-23T04:07:36.061Z,0.00
2018-03-23T04:08:36.063Z,0.00
2018-03-23T04:09:36.075Z,0.00
2018-03-23T04:10:36.069Z,0.00
2018-03-23T04:11:36.080Z,0.00
2018-03-23T04:12:36.075Z,0.00
2018-03-23T04:13:36.077Z,0.00
2018-03-23T04:14:36.079Z,0.00
2018-03-23T04:15:36.084Z,0.00
2018-03-23T04:16:36.088Z,0.00
2018-03-23T04:17:36.087Z,0.00
2018-03-23T04:18:36.090Z,0.00
2018-03-23T04:19:36.093Z,0.00
2018-03-23T04:20:36.094Z,0.00
2018-03-23T04:21:36.096Z,0.00
2018-03-23T04:22:36.105Z,0.00
2018-03-23T04:23:36.106Z,0.00
2018-03-23T04:24:36.110Z,0.00
2018-03-23T04:25:36.112Z,0.00
2018-03-23T04:26:36.113Z,0.00
2018-03-23T04:27:36.116Z,0.00
2018-03-23T04:28:36.119Z,0.00
2018-03-23T04:29:36.121Z,0.00
2018-03-23T04:30:36.125Z,0.00
2018-03-23T04:31:36.131Z,0.00
2018-03-23T04:32:36.123Z,0.00
2018-03-23T04:33:36.133Z,0.00
2018-03-23T04:34:36.134Z,0.00
2018-03-23T04:35:36.137Z,0.00
2018-03-23T04:36:36.133Z,0.00
2018-03-23T04:37:36.137Z,0.00
2018-03-23T04:38:36.142Z,0.00
2018-03-23T04:39:36.147Z,0.00
2018-03-23T04:40:36.149Z,0.00
2018-03-23T04:41:36.149Z,0.00
2018-03-23T04:42:36.147Z,0.00
2018-03-23T04:43:36.155Z,0.00
2018-03-23T04:44:36.157Z,0.00
2018-03-23T04:45:36.156Z,0.00
2018-03-23T04:46:36.158Z,0.00
2018-03-23T04:47:36.167Z,0.00
2018-03-23T04:48:36.175Z,0.00
2018-03-23T04:49:36.166Z,0.00
2018-03-23T04:50:36.173Z,0.00
2018-03-23T04:51:36.174Z,0.00
2018-03-23T04:52:36.173Z,0.00
2018-03-23T04:53:36.178Z,0.00
2018-03-23T04:54:36.184Z,0.00
2018-03-23T04:55:36.181Z,0.00
2018-03-23T04:56:36.189Z,0.00
2018-03-23T04:57:36.191Z,0.00
2018-03-23T04:58:36.189Z,0.00
2018-03-23T04:59:36.191Z,0.00
2018-03-23T05:00:36.200Z,0.00
2018-03-23T05:01:36.198Z,0.00
2018-03-23T05:02:36.206Z,0.00
2018-03-23T05:03:36.211Z,0.00
2018-03-23T05:04:36.205Z,0.00
2018-03-23T05:05:36.213Z,0.00
2018-03-23T05:06:36.217Z,0.00
2018-03-23T05:07:36.213Z,0.00
2018-03-23T05:08:36.228Z,0.00
2018-03-23T05:09:36.225Z,0.00
2018-03-23T05:10:36.223Z,0.00
2018-03-23T05:11:36.225Z,0.00
2018-03-23T05:12:36.227Z,0.00
2018-03-23T05:13:36.235Z,0.00
2018-03-23T05:14:36.240Z,0.00
2018-03-23T05:15:36.236Z,0.00
2018-03-23T05:16:36.245Z,0.00
2018-03-23T05:17:36.250Z,0.00
2018-03-23T05:18:36.245Z,0.00
2018-03-23T05:19:36.253Z,0.00
2018-03-23T05:20:36.255Z,0.00
2018-03-23T05:21:36.257Z,0.00
2018-03-23T05:22:36.262Z,0.00
2018-03-23T05:23:36.258Z,0.00
2018-03-23T05:24:36.266Z,0.00
2018-03-23T05:25:36.263Z,0.00
2018-03-23T05:26:36.273Z,0.00
2018-03-23T05:27:36.273Z,0.00
2018-03-23T05:28:36.273Z,0.00
2018-03-23T05:29:36.285Z,0.00
2018-03-23T05:30:36.277Z,0.00
2018-03-23T05:31:36.322Z,0.00
2018-03-23T05:32:36.282Z,0.00
2018-03-23T05:33:36.285Z,0.00
2018-03-23T05:34:36.291Z,0.00
2018-03-23T05:35:36.290Z,0.00
2018-03-23T05:36:36.298Z,0.00
2018-03-23T05:37:36.296Z,0.00
2018-03-23T05:38:36.308Z,0.00
2018-03-23T05:39:36.301Z,0.00
2018-03-23T05:40:36.314Z,0.00
2018-03-23T05:41:36.311Z,0.00
2018-03-23T05:42:36.309Z,0.00
2018-03-23T05:43:36.310Z,0.00
2018-03-23T05:44:36.314Z,0.00
2018-03-23T05:45:36.323Z,0.00
2018-03-23T05:46:36.324Z,0.00
2018-03-23T05:47:36.329Z,0.00
2018-03-23T05:48:36.328Z,0.00
2018-03-23T05:49:36.330Z,0.00
2018-03-23T05:50:36.334Z,0.00
2018-03-23T05:51:36.330Z,0.00
2018-03-23T05:52:36.332Z,0.00
2018-03-23T05:53:36.336Z,0.00
2018-03-23T05:54:36.345Z,0.00
2018-03-23T05:55:36.339Z,0.00
2018-03-23T05:56:36.349Z,0.00
2018-03-23T05:57:36.347Z,0.00
2018-03-23T05:58:36.349Z,0.00
2018-03-23T05:59:36.358Z,0.00
2018-03-23T06:00:36.359Z,0.00
2018-03-23T06:01:36.362Z,0.00
2018-03-23T06:02:36.364Z,0.00
2018-03-23T06:03:36.361Z,0.00
2018-03-23T06:04:36.375Z,0.00
2018-03-23T06:05:36.372Z,0.00
2018-03-23T06:06:36.369Z,0.00
2018-03-23T06:07:36.375Z,0.00
2018-03-23T06:08:36.374Z,0.00
2018-03-23T06:09:36.383Z,0.00
2018-03-23T06:10:36.381Z,0.00
2018-03-23T06:11:36.384Z,0.00
2018-03-23T06:12:36.387Z,0.00
2018-03-23T06:13:36.393Z,0.00
2018-03-23T06:14:36.395Z,0.00
2018-03-23T06:15:36.396Z,0.00
2018-03-23T06:16:36.395Z,0.00
2018-03-23T06:17:36.397Z,0.00
2018-03-23T06:18:36.405Z,0.00
2018-03-23T06:19:36.402Z,0.00
2018-03-23T06:20:36.412Z,0.00
2018-03-23T06:21:36.415Z,0.00
2018-03-23T06:22:36.411Z,0.00
2018-03-23T06:23:36.425Z,0.00
2018-03-23T06:24:36.422Z,0.00
2018-03-23T06:25:36.419Z,0.00
2018-03-23T06:26:36.423Z,0.00
2018-03-23T06:27:36.430Z,0.00
2018-03-23T06:28:36.432Z,0.00
2018-03-23T06:29:36.436Z,0.00
2018-03-23T06:30:36.439Z,0.00
2018-03-23T06:31:36.442Z,5.63
2018-03-23T06:32:36.437Z,5.63
2018-03-23T06:33:36.475Z,5.63
2018-03-23T06:34:36.449Z,5.63
2018-03-23T06:35:36.452Z,5.63
2018-03-23T06:36:36.451Z,5.63
2018-03-23T06:37:36.457Z,5.63
2018-03-23T06:38:36.455Z,5.63
2018-03-23T06:39:36.462Z,5.63
2018-03-23T06:40:36.463Z,5.63
2018-03-23T06:41:36.475Z,5.63
2018-03-23T06:42:36.466Z,5.63
2018-03-23T06:43:36.474Z,5.63
2018-03-23T06:44:36.475Z,5.63
2018-03-23T06:45:36.479Z,5.63
2018-03-23T06:46:36.485Z,5.63
2018-03-23T06:47:36.477Z,5.63
2018-03-23T06:48:36.480Z,5.63
2018-03-23T06:49:36.484Z,5.63
2018-03-23T06:50:36.497Z,5.63
2018-03-23T06:51:36.497Z,5.63
2018-03-23T06:52:36.498Z,5.63
2018-03-23T06:53:36.500Z,5.63
2018-03-23T06:54:36.502Z,5.63
2018-03-23T06:55:36.500Z,5.63
2018-03-23T06:56:36.510Z,5.63
2018-03-23T06:57:36.512Z,11.25
2018-03-23T06:58:36.513Z,11.25
2018-03-23T06:59:36.517Z,11.25
2018-03-23T07:00:36.515Z,11.25
2018-03-23T07:01:36.524Z,11.25
2018-03-23T07:02:36.526Z,11.25
2018-03-23T07:03:36.525Z,11.25
2018-03-23T07:04:36.562Z,11.25
2018-03-23T07:05:36.535Z,11.25
2018-03-23T07:06:36.531Z,16.88
2018-03-23T07:07:36.540Z,16.88
2018-03-23T07:08:36.545Z,16.88
2018-03-23T07:09:36.546Z,16.88
2018-03-23T07:10:36.542Z,16.88
2018-03-23T07:11:36.545Z,16.88
2018-03-23T07:12:36.554Z,16.88
2018-03-23T07:13:36.556Z,16.88
2018-03-23T07:14:36.555Z,16.88
2018-03-23T07:15:36.585Z,16.88
2018-03-23T07:16:36.564Z,16.88
2018-03-23T07:17:36.567Z,16.88
2018-03-23T07:18:36.576Z,16.88
2018-03-23T07:19:36.567Z,16.88
2018-03-23T07:20:36.576Z,16.88
2018-03-23T07:21:36.580Z,16.88
2018-03-23T07:22:36.577Z,16.88
2018-03-23T07:23:36.581Z,16.88
2018-03-23T07:24:36.589Z,16.88
2018-03-23T07:25:36.595Z,16.88
2018-03-23T07:26:36.594Z,16.88
2018-03-23T07:27:36.592Z,16.88
2018-03-23T07:28:36.601Z,16.88
2018-03-23T07:29:36.605Z,16.88
2018-03-23T07:30:36.603Z,16.88
2018-03-23T07:31:36.610Z,16.88
2018-03-23T07:32:36.613Z,16.88
2018-03-23T07:33:36.610Z,16.88
2018-03-23T07:34:36.620Z,16.88
2018-03-23T07:35:36.623Z,16.88
2018-03-23T07:36:36.624Z,16.88
2018-03-23T07:37:36.625Z,16.88
2018-03-23T07:38:36.628Z,16.88
2018-03-23T07:39:36.631Z,16.88
2018-03-23T07:40:36.634Z,16.88
2018-03-23T07:41:36.638Z,16.88
2018-03-23T07:42:36.648Z,16.88
2018-03-23T07:43:36.647Z,16.88
2018-03-23T07:44:36.653Z,16.88
2018-03-23T07:45:36.650Z,16.88
2018-03-23T07:46:36.655Z,16.88
2018-03-23T07:47:36.660Z,16.88
2018-03-23T07:48:36.668Z,22.50
2018-03-23T07:49:36.668Z,22.50
2018-03-23T07:50:36.677Z,22.50
2018-03-23T07:51:36.674Z,22.50
2018-03-23T07:52:36.674Z,22.50
2018-03-23T07:53:36.678Z,22.50
2018-03-23T07:54:36.687Z,22.50
2018-03-23T07:55:36.688Z,22.50
2018-03-23T07:56:36.692Z,22.50
2018-03-23T07:57:36.689Z,22.50
2018-03-23T07:58:36.696Z,22.50
2018-03-23T07:59:36.697Z,22.50
2018-03-23T08:00:36.707Z,22.50
2018-03-23T08:01:36.707Z,22.50
2018-03-23T08:02:36.709Z,28.13
2018-03-23T08:03:36.712Z,28.13
2018-03-23T08:04:36.715Z,28.13
2018-03-23T08:05:36.719Z,28.13
2018-03-23T08:06:36.730Z,28.13
2018-03-23T08:07:36.732Z,28.13
2018-03-23T08:08:36.730Z,28.13
2018-03-23T08:09:36.739Z,28.13
2018-03-23T08:10:36.738Z,28.13
2018-03-23T08:11:36.746Z,28.13
2018-03-23T08:12:36.750Z,28.13
2018-03-23T08:13:36.758Z,33.75
2018-03-23T08:14:36.758Z,33.75
2018-03-23T08:15:36.758Z,33.75
2018-03-23T08:16:36.767Z,33.75
2018-03-23T08:17:36.773Z,33.75
2018-03-23T08:18:36.774Z,33.75
2018-03-23T08:19:36.776Z,33.75
2018-03-23T08:20:36.785Z,33.75
2018-03-23T08:21:36.780Z,33.75
2018-03-23T08:22:36.784Z,33.75
2018-03-23T08:23:36.787Z,33.75
2018-03-23T08:24:36.793Z,33.75
2018-03-23T08:25:36.795Z,33.75
2018-03-23T08:26:36.804Z,33.75
2018-03-23T08:27:36.810Z,33.75
2018-03-23T08:28:36.814Z,39.38
2018-03-23T08:29:36.816Z,39.38
2018-03-23T08:30:36.817Z,39.38
2018-03-23T08:31:36.824Z,39.38
2018-03-23T08:32:36.823Z,39.38
2018-03-23T08:33:36.830Z,39.38
2018-03-23T08:34:36.839Z,39.38
2018-03-23T08:35:36.841Z,39.38
2018-03-23T08:36:36.839Z,39.38
2018-03-23T08:37:36.853Z,39.38
2018-03-23T08:38:36.856Z,39.38
2018-03-23T08:39:36.858Z,39.38
2018-03-23T08:40:36.897Z,39.38
2018-03-23T08:41:36.870Z,39.38
2018-03-23T08:42:36.872Z,45.00
2018-03-23T08:43:36.870Z,45.00
2018-03-23T08:44:36.896Z,45.00
2018-03-23T08:45:36.886Z,45.00
2018-03-23T08:46:36.889Z,45.00
2018-03-23T08:47:36.894Z,45.00
2018-03-23T08:48:36.893Z,45.00
2018-03-23T08:49:36.904Z,45.00
2018-03-23T08:50:36.902Z,45.00
2018-03-23T08:51:36.912Z,50.63
2018-03-23T08:52:36.912Z,50.63
2018-03-23T08:53:36.922Z,50.63
2018-03-23T08:54:36.922Z,50.63
2018-03-23T08:55:36.924Z,50.63
2018-03-23T08:56:36.940Z,50.63
2018-03-23T08:57:36.941Z,50.63
2018-03-23T08:58:36.940Z,50.63
2018-03-23T08:59:36.943Z,56.25
2018-03-23T09:00:36.957Z,56.25
2018-03-23T09:01:36.961Z,56.25
2018-03-23T09:02:36.960Z,56.25
2018-03-23T09:03:36.965Z,56.25
2018-03-23T09:04:36.975Z,56.25
2018-03-23T09:05:36.981Z,56.25
2018-03-23T09:06:36.979Z,56.25
2018-03-23T09:07:36.983Z,56.25
2018-03-23T09:08:36.989Z,56.25
2018-03-23T09:09:37.001Z,56.25
2018-03-23T09:10:37.004Z,56.25
2018-03-23T09:11:37.005Z,56.25
2018-03-23T09:12:37.015Z,56.25
2018-03-23T09:13:37.021Z,61.88
2018-03-23T09:14:37.020Z,61.88
2018-03-23T09:15:37.032Z,61.88
2018-03-23T09:16:37.041Z,61.88
2018-03-23T09:17:37.038Z,61.88
2018-03-23T09:18:37.049Z,61.88
2018-03-23T09:19:37.054Z,61.88
2018-03-23T09:20:37.067Z,67.50
2018-03-23T09:21:37.069Z,67.50
2018-03-23T09:22:37.069Z,67.50
2018-03-23T09:23:37.073Z,67.50
2018-03-23T09:24:37.079Z,67.50
2018-03-23T09:25:37.085Z,67.50
2018-03-23T09:26:37.092Z,67.50
2018-03-23T09:27:37.096Z,73.13
2018-03-23T09:28:37.103Z,73.13
2018-03-23T09:29:37.110Z,73.13
2018-03-23T09:30:37.122Z,73.13
2018-03-23T09:31:37.127Z,73.13
2018-03-23T09:32:37.129Z,73.13
2018-03-23T09:33:37.134Z,73.13
2018-03-23T09:34:37.147Z,73.13
2018-03-23T09:35:37.152Z,73.13
2018-03-23T09:36:37.159Z,73.13
2018-03-23T09:37:37.159Z,73.13
2018-03-23T09:38:37.171Z,73.13
2018-03-23T09:39:37.182Z,78.75
2018-03-23T09:40:37.176Z,78.75
2018-03-23T09:41:37.190Z,78.75
2018-03-23T09:42:37.196Z,78.75
2018-03-23T09:43:37.195Z,84.38
2018-03-23T09:44:37.203Z,84.38
2018-03-23T09:45:37.208Z,84.38
2018-03-23T09:46:37.223Z,84.38
2018-03-23T09:47:37.225Z,84.38
2018-03-23T09:48:37.246Z,90.00
2018-03-23T09:49:37.233Z,90.00
2018-03-23T09:50:37.249Z,90.00
2018-03-23T09:51:37.245Z,90.00
2018-03-23T09:52:37.251Z,90.00
2018-03-23T09:53:37.258Z,90.00
2018-03-23T09:54:37.270Z,90.00
2018-03-23T09:55:37.276Z,90.00
2018-03-23T09:56:37.275Z,90.00
2018-03-23T09:57:37.288Z,90.00
2018-03-23T09:58:37.287Z,90.00
2018-03-23T09:59:37.294Z,90.00
2018-03-23T10:00:37.300Z,95.63
2018-03-23T10:01:37.312Z,95.63
2018-03-23T10:02:37.318Z,95.63
2018-03-23T10:03:37.324Z,95.63
2018-03-23T10:04:37.330Z,95.63
2018-03-23T10:05:37.337Z,95.63
2018-03-23T10:06:37.344Z,95.63
2018-03-23T10:07:37.353Z,95.63
2018-03-23T10:08:37.349Z,95.63
2018-03-23T10:09:37.360Z,95.63
2018-03-23T10:10:37.363Z,95.63
2018-03-23T10:11:37.369Z,101.25
2018-03-23T10:12:37.376Z,101.25
2018-03-23T10:13:37.389Z,101.25
2018-03-23T10:14:37.390Z,101.25
2018-03-23T10:15:37.394Z,101.25
2018-03-23T10:16:37.407Z,101.25
2018-03-23T10:17:37.413Z,101.25
2018-03-23T10:18:37.423Z,101.25
2018-03-23T10:19:37.420Z,101.25
2018-03-23T10:20:37.434Z,101.25
2018-03-23T10:21:37.460Z,101.25
2018-03-23T10:22:37.442Z,101.25
2018-03-23T10:23:37.454Z,101.25
2018-03-23T10:24:37.459Z,101.25
2018-03-23T10:25:37.463Z,106.88
2018-03-23T10:26:37.470Z,106.88
2018-03-23T10:27:37.476Z,106.88
2018-03-23T10:28:37.510Z,106.88
2018-03-23T10:29:37.493Z,106.88
2018-03-23T10:30:37.505Z,106.88
2018-03-23T10:31:37.513Z,106.88
2018-03-23T10:32:37.519Z,106.88
2018-03-23T10:33:37.522Z,106.88
2018-03-23T10:34:37.528Z,106.88
2018-03-23T10:35:37.540Z,106.88
2018-03-23T10:36:37.544Z,106.88
2018-03-23T10:37:37.559Z,106.88
2018-03-23T10:38:37.564Z,106.88
2018-03-23T10:39:37.573Z,106.88
2018-03-23T10:40:37.580Z,106.88
2018-03-23T10:41:37.582Z,106.88
2018-03-23T10:42:37.589Z,106.88
2018-03-23T10:43:37.604Z,106.88
2018-03-23T10:44:37.605Z,106.88
2018-03-23T10:45:37.621Z,106.88
2018-03-23T10:46:37.623Z,106.88
2018-03-23T10:47:37.634Z,106.88
2018-03-23T10:48:37.638Z,106.88
2018-03-23T10:49:37.647Z,106.88
2018-03-23T10:50:37.657Z,106.88
2018-03-23T10:51:37.663Z,106.88
2018-03-23T10:52:37.699Z,106.88
2018-03-23T10:53:37.683Z,106.88
2018-03-23T10:54:37.689Z,106.88
2018-03-23T10:55:37.699Z,106.88
2018-03-23T10:56:37.712Z,106.88
2018-03-23T10:57:37.719Z,106.88
2018-03-23T10:58:37.721Z,106.88
2018-03-23T10:59:37.736Z,106.88
2018-03-23T11:00:37.745Z,106.88
2018-03-23T11:01:37.750Z,106.88
2018-03-23T11:02:37.756Z,106.88
2018-03-23T11:03:37.764Z,106.88
2018-03-23T11:04:37.772Z,106.88
2018-03-23T11:05:37.781Z,112.50
2018-03-23T11:06:37.796Z,112.50
2018-03-23T11:07:37.804Z,106.88
2018-03-23T11:08:37.810Z,112.50
2018-03-23T11:09:37.820Z,112.50
2018-03-23T11:10:37.830Z,112.50
2018-03-23T11:11:37.830Z,112.50
2018-03-23T11:12:37.840Z,112.50
2018-03-23T11:13:37.854Z,106.88
2018-03-23T11:14:37.910Z,106.88
2018-03-23T11:15:37.865Z,106.88
2018-03-23T11:16:37.875Z,112.50
2018-03-23T11:17:37.889Z,112.50
2018-03-23T11:18:37.900Z,112.50
2018-03-23T11:19:37.904Z,112.50
2018-03-23T11:20:37.910Z,118.13
2018-03-23T11:21:37.921Z,112.50
2018-03-23T11:22:37.936Z,112.50
2018-03-23T11:23:37.946Z,112.50
2018-03-23T11:24:37.954Z,112.50
2018-03-23T11:25:37.959Z,118.13
2018-03-23T11:26:37.973Z,118.13
2018-03-23T11:27:37.976Z,112.50
2018-03-23T11:28:37.985Z,118.13
2018-03-23T11:29:37.997Z,112.50
2018-03-23T11:30:38.004Z,112.50
2018-03-23T11:31:38.015Z,112.50
2018-03-23T11:32:38.029Z,112.50
2018-03-23T11:33:38.040Z,118.13
2018-03-23T11:34:38.043Z,112.50
2018-03-23T11:35:38.051Z,112.50
2018-03-23T11:36:38.062Z,112.50
2018-03-23T11:37:38.072Z,112.50
2018-03-23T11:38:38.082Z,118.13
2018-03-23T11:39:38.091Z,112.50
2018-03-23T11:40:38.101Z,112.50
2018-03-23T11:41:38.131Z,112.50
2018-03-23T11:42:38.120Z,112.50
2018-03-23T11:43:38.132Z,112.50
2018-03-23T11:44:38.142Z,112.50
2018-03-23T11:45:38.156Z,112.50
2018-03-23T11:46:38.162Z,112.50
2018-03-23T11:47:38.174Z,112.50
2018-03-23T11:48:38.184Z,112.50
2018-03-23T11:49:38.188Z,112.50
2018-03-23T11:50:38.205Z,112.50
2018-03-23T11:51:38.214Z,112.50
2018-03-23T11:52:38.219Z,112.50
2018-03-23T11:53:38.231Z,112.50
2018-03-23T11:54:38.241Z,112.50
2018-03-23T11:55:38.251Z,112.50
2018-03-23T11:56:38.260Z,112.50
2018-03-23T11:57:38.272Z,112.50
2018-03-23T11:58:38.326Z,112.50
2018-03-23T11:59:38.298Z,112.50
2018-03-23T12:00:38.303Z,112.50
2018-03-23T12:01:38.318Z,112.50
2018-03-23T12:02:38.325Z,112.50
2018-03-23T12:03:38.339Z,112.50
2018-03-23T12:04:38.351Z,112.50
2018-03-23T12:05:38.362Z,112.50
2018-03-23T12:06:38.378Z,112.50
2018-03-23T12:07:38.384Z,112.50
2018-03-23T12:08:38.388Z,112.50
2018-03-23T12:09:38.399Z,112.50
2018-03-23T12:10:38.410Z,112.50
2018-03-23T12:11:38.420Z,112.50
2018-03-23T12:12:38.432Z,112.50
2018-03-23T12:13:38.448Z,112.50
2018-03-23T12:14:38.453Z,112.50
2018-03-23T12:15:38.469Z,112.50
2018-03-23T12:16:38.473Z,112.50
2018-03-23T12:17:38.489Z,112.50
2018-03-23T12:18:38.497Z,112.50
2018-03-23T12:19:38.509Z,112.50
2018-03-23T12:20:38.517Z,112.50
2018-03-23T12:21:38.535Z,112.50
2018-03-23T12:22:38.545Z,112.50
2018-03-23T12:23:38.548Z,112.50
2018-03-23T12:24:38.572Z,112.50
2018-03-23T12:25:38.573Z,112.50
2018-03-23T12:26:38.585Z,112.50
2018-03-23T12:27:38.593Z,112.50
2018-03-23T12:28:38.604Z,112.50
2018-03-23T12:29:38.614Z,112.50
2018-03-23T12:30:38.631Z,112.50
2018-03-23T12:31:38.648Z,112.50
2018-03-23T12:32:38.653Z,112.50
2018-03-23T12:33:38.669Z,112.50
2018-03-23T12:34:38.676Z,112.50
2018-03-23T12:35:38.693Z,112.50
2018-03-23T12:36:38.693Z,112.50
2018-03-23T12:37:38.704Z,112.50
2018-03-23T12:38:38.722Z,112.50
2018-03-23T12:39:38.732Z,118.13
2018-03-23T12:40:38.747Z,112.50
2018-03-23T12:41:38.748Z,112.50
2018-03-23T12:42:38.765Z,112.50
2018-03-23T12:43:38.788Z,112.50
2018-03-23T12:44:38.786Z,112.50
2018-03-23T12:45:38.889Z,118.13
2018-03-23T12:46:38.806Z,112.50
2018-03-23T12:47:38.816Z,112.50
2018-03-23T12:48:38.828Z,112.50
2018-03-23T12:49:38.838Z,112.50
2018-03-23T12:50:38.855Z,112.50
2018-03-23T12:51:38.867Z,112.50
2018-03-23T12:52:38.878Z,112.50
2018-03-23T12:53:38.890Z,112.50
2018-03-23T12:54:38.895Z,112.50
2018-03-23T12:55:38.906Z,118.13
2018-03-23T12:56:38.918Z,112.50
2018-03-23T12:57:38.929Z,118.13
2018-03-23T12:58:38.944Z,118.13
2018-03-23T12:59:38.950Z,118.13
2018-03-23T13:00:38.968Z,118.13